Marion, North Dakota
Current Conditions -  °F | °C
As of 4:55 PM on Thursday 20 Nov 2014 (Local Time) from KBAC Reporting Station
Clear Clear  
Wind Chill:   Ceiling: Unl
Heat Index: 14°   Visibility: NA
Dew Point:   Wind: 6mph
Humidity: 67%   Direction: 190°S
Pressure: 30.09"   Gusts: NA
Location:  46.61°N, 98.33°W
Report Text: KBAC 202255Z AUTO 19005KT CLR M10/M15 A3009 RMK AO2
Loading
Personal Weather Stations






























Interactive Weather Map New forecast layout! Learn more

10-Day Weather Forecast

Advertisements
Track Severe Weather on mobile